createdAt,value
2022-09-23T00:00:19.646Z,100827.50
2022-09-23T00:02:51.399Z,100832.59
2022-09-23T00:05:21.849Z,100831.55
2022-09-23T00:07:51.697Z,100832.17
2022-09-23T00:10:21.562Z,100821.35
2022-09-23T00:12:51.863Z,100826.48
2022-09-23T00:15:22.814Z,100823.29
2022-09-23T00:17:54.362Z,100818.96
2022-09-23T00:20:24.399Z,100822.48
2022-09-23T00:22:54.287Z,100821.23
2022-09-23T00:25:24.079Z,100819.16
2022-09-23T00:27:54.864Z,100815.23
2022-09-23T00:30:24.759Z,100814.55
2022-09-23T00:32:54.652Z,100814.77
2022-09-23T00:35:24.485Z,100814.77
2022-09-23T00:37:54.359Z,100812.22
2022-09-23T00:40:23.909Z,100806.58
2022-09-23T00:42:53.734Z,100812.32
2022-09-23T00:45:23.317Z,100803.33
2022-09-23T00:47:56.519Z,100800.80
2022-09-23T00:50:40.881Z,100803.13
2022-09-23T00:53:13.654Z,100806.25
2022-09-23T00:55:55.583Z,100806.25
2022-09-23T00:58:28.810Z,100796.80
2022-09-23T01:01:01.307Z,100796.91
2022-09-23T01:03:31.579Z,100801.64
2022-09-23T01:06:01.531Z,100802.15
2022-09-23T01:08:31.583Z,100797.48
2022-09-23T01:11:26.888Z,100792.04
2022-09-23T01:14:16.743Z,100791.64
2022-09-23T01:16:58.342Z,100801.81
2022-09-23T01:19:37.208Z,100793.22
2022-09-23T01:22:35.901Z,100796.05
2022-09-23T01:25:32.211Z,100793.48
2022-09-23T01:28:27.973Z,100789.05
2022-09-23T01:31:17.552Z,100786.00
2022-09-23T01:34:01.938Z,100782.91
2022-09-23T01:36:54.068Z,100780.00
2022-09-23T01:39:45.625Z,100777.55
2022-09-23T01:42:30.360Z,100783.23
2022-09-23T01:45:03.289Z,100775.13
2022-09-23T01:47:42.374Z,100774.78
2022-09-23T01:50:36.141Z,100774.88
2022-09-23T01:53:09.696Z,100773.22
2022-09-23T01:55:42.602Z,100777.60
2022-09-23T01:58:17.819Z,100771.47
2022-09-23T02:00:51.088Z,100775.14
2022-09-23T02:03:27.988Z,100775.14
2022-09-23T02:06:09.951Z,100773.89
2022-09-23T02:08:48.580Z,100779.63
2022-09-23T02:11:18.863Z,100771.83
2022-09-23T02:14:04.000Z,100776.55
2022-09-23T02:16:38.655Z,100773.48
2022-09-23T02:19:11.610Z,100778.91
2022-09-23T02:21:44.537Z,100774.58
2022-09-23T02:24:20.985Z,100772.97
2022-09-23T02:26:56.800Z,100772.97
2022-09-23T02:29:47.413Z,100773.08
2022-09-23T02:32:34.841Z,100773.13
2022-09-23T02:35:11.814Z,100770.16
2022-09-23T02:37:53.907Z,100773.23
2022-09-23T02:40:38.825Z,100766.45
2022-09-23T02:43:11.478Z,100765.87
2022-09-23T02:45:41.405Z,100761.95
2022-09-23T02:48:25.811Z,100761.05
2022-09-23T02:50:56.252Z,100771.81
2022-09-23T02:53:26.317Z,100767.09
2022-09-23T02:55:56.696Z,100769.75
2022-09-23T02:58:29.039Z,100763.82
2022-09-23T03:01:06.120Z,100762.26
2022-09-23T03:03:39.058Z,100760.95
2022-09-23T03:06:23.414Z,100755.73
2022-09-23T03:08:56.680Z,100755.73
2022-09-23T03:11:27.224Z,100759.64
2022-09-23T03:14:18.987Z,100759.64
2022-09-23T03:17:14.555Z,100758.48
2022-09-23T03:19:53.656Z,100758.94
2022-09-23T03:22:26.474Z,100758.94
2022-09-23T03:24:59.155Z,100755.83
2022-09-23T03:27:34.035Z,100751.10
2022-09-23T03:30:05.812Z,100757.23
2022-09-23T03:32:37.901Z,100755.52
2022-09-23T03:35:08.083Z,100756.78
2022-09-23T03:37:46.869Z,100751.55
2022-09-23T03:40:25.570Z,100746.33
2022-09-23T03:42:57.778Z,100744.22
2022-09-23T03:45:33.538Z,100744.12
2022-09-23T03:48:04.354Z,100740.78
2022-09-23T03:50:35.733Z,100736.28
2022-09-23T03:53:07.026Z,100736.28
2022-09-23T03:55:38.457Z,100729.75
2022-09-23T03:58:08.331Z,100729.40
2022-09-23T04:00:38.988Z,100728.55
2022-09-23T04:03:11.703Z,100720.94
2022-09-23T04:05:41.191Z,100726.62
2022-09-23T04:08:10.711Z,100726.62
2022-09-23T04:10:42.656Z,100717.92
2022-09-23T04:13:12.530Z,100721.84
2022-09-23T04:15:42.624Z,100722.30
2022-09-23T04:18:12.518Z,100721.84
2022-09-23T04:20:43.346Z,100718.78
2022-09-23T04:23:13.148Z,100718.02
2022-09-23T04:25:49.373Z,100723.25
2022-09-23T04:28:18.968Z,100722.89
2022-09-23T04:30:50.471Z,100721.99
2022-09-23T04:33:24.536Z,100723.45
2022-09-23T04:35:56.099Z,100727.46
2022-09-23T04:38:25.979Z,100730.38
2022-09-23T04:40:55.767Z,100725.55
2022-09-23T04:43:25.580Z,100726.51
2022-09-23T04:46:03.609Z,100729.13
2022-09-23T04:48:34.370Z,100727.36
2022-09-23T04:51:04.630Z,100736.55
2022-09-23T04:53:35.679Z,100731.42
2022-09-23T04:56:09.907Z,100722.42
2022-09-23T04:58:40.922Z,100726.33
2022-09-23T05:01:13.015Z,100727.69
2022-09-23T05:03:44.286Z,100726.71
2022-09-23T05:06:15.438Z,100725.61
2022-09-23T05:08:51.326Z,100723.77
2022-09-23T05:11:21.120Z,100732.41
2022-09-23T05:13:53.277Z,100726.91
2022-09-23T05:16:24.089Z,100732.64
2022-09-23T05:18:54.589Z,100728.39
2022-09-23T05:21:26.884Z,100728.39
2022-09-23T05:24:00.007Z,100733.62
2022-09-23T05:26:32.539Z,100730.30
2022-09-23T05:29:02.727Z,100733.81
2022-09-23T05:31:32.705Z,100733.44
2022-09-23T05:34:04.813Z,100734.53
2022-09-23T05:36:38.758Z,100739.41
2022-09-23T05:39:09.211Z,100735.61
2022-09-23T05:41:40.318Z,100736.84
2022-09-23T05:44:09.110Z,100736.16
2022-09-23T05:46:39.013Z,100733.80
2022-09-23T05:49:09.078Z,100739.08
2022-09-23T05:51:39.519Z,100737.95
2022-09-23T05:54:09.585Z,100733.95
2022-09-23T05:56:39.437Z,100733.95
2022-09-23T05:59:09.025Z,100737.63
2022-09-23T06:01:39.227Z,100738.45
2022-09-23T06:04:10.748Z,100738.77
2022-09-23T06:06:43.166Z,100735.05
2022-09-23T06:09:15.617Z,100736.59
2022-09-23T06:11:46.843Z,100727.45
2022-09-23T06:14:16.712Z,100728.91
2022-09-23T06:16:46.511Z,100722.42
2022-09-23T06:19:16.268Z,100727.06
2022-09-23T06:21:46.080Z,100729.30
2022-09-23T06:24:20.264Z,100736.34
2022-09-23T06:26:49.400Z,100733.16
2022-09-23T06:29:19.264Z,100731.20
2022-09-23T06:31:50.679Z,100730.81
2022-09-23T06:34:21.042Z,100732.08
2022-09-23T06:36:51.772Z,100730.81
2022-09-23T06:39:21.343Z,100734.47
2022-09-23T06:41:51.157Z,100734.98
2022-09-23T06:44:20.728Z,100736.61
2022-09-23T06:46:52.197Z,100735.83
2022-09-23T06:49:22.762Z,100735.70
2022-09-23T06:51:52.929Z,100737.48
2022-09-23T06:54:22.765Z,100736.64
2022-09-23T06:56:52.569Z,100729.58
2022-09-23T06:59:22.282Z,100735.69
2022-09-23T07:01:52.216Z,100732.58
2022-09-23T07:04:24.071Z,100733.17
2022-09-23T07:06:55.548Z,100741.20
2022-09-23T07:09:25.917Z,100738.58
2022-09-23T07:11:55.738Z,100734.66
2022-09-23T07:14:26.080Z,100739.34
2022-09-23T07:16:57.401Z,100731.40
2022-09-23T07:19:27.183Z,100739.51
2022-09-23T07:21:57.137Z,100739.51
2022-09-23T07:24:26.998Z,100743.25
2022-09-23T07:26:56.854Z,100729.61
2022-09-23T07:29:31.443Z,100726.00
2022-09-23T07:32:10.349Z,100721.55
2022-09-23T07:34:31.418Z,100723.67
2022-09-23T07:37:01.276Z,100719.91
2022-09-23T07:39:31.140Z,100720.70
2022-09-23T07:42:02.046Z,100721.54
2022-09-23T07:44:32.015Z,100723.75
2022-09-23T07:47:01.969Z,100721.80
2022-09-23T07:49:31.557Z,100717.00
2022-09-23T07:52:02.631Z,100717.00
2022-09-23T07:54:32.715Z,100718.41
2022-09-23T07:57:03.024Z,100711.95
2022-09-23T07:59:32.887Z,100710.23
2022-09-23T08:02:02.810Z,100710.23
2022-09-23T08:04:34.735Z,100716.02
2022-09-23T08:07:07.068Z,100703.02
2022-09-23T08:09:41.388Z,100700.58
2022-09-23T08:12:16.384Z,100705.31
2022-09-23T08:14:46.572Z,100690.81
2022-09-23T08:17:16.503Z,100689.19
2022-09-23T08:19:46.452Z,100681.20
2022-09-23T08:22:16.289Z,100676.98
2022-09-23T08:24:46.150Z,100682.09
2022-09-23T08:27:16.646Z,100687.69
2022-09-23T08:29:46.977Z,100687.18
2022-09-23T08:32:16.756Z,100688.49
2022-09-23T08:34:46.854Z,100686.51
2022-09-23T08:37:16.674Z,100682.43
2022-09-23T08:39:46.634Z,100680.30
2022-09-23T08:42:19.413Z,100688.61
2022-09-23T08:44:56.685Z,100684.50
2022-09-23T08:47:29.278Z,100677.25
2022-09-23T08:50:11.207Z,100677.25
2022-09-23T08:52:47.200Z,100681.91
2022-09-23T08:55:18.961Z,100673.55
2022-09-23T09:00:42.013Z,100666.45
2022-09-23T09:03:23.988Z,100666.45
2022-09-23T09:05:56.934Z,100667.28
2022-09-23T09:08:36.482Z,100676.22
2022-09-23T09:11:07.891Z,100674.50
2022-09-23T09:13:42.450Z,100670.91
2022-09-23T09:16:48.326Z,100665.31
2022-09-23T09:19:00.480Z,100666.52
2022-09-23T09:21:37.639Z,100657.34
2022-09-23T09:24:10.423Z,100656.41
2022-09-23T09:26:41.505Z,100658.73
2022-09-23T09:29:35.375Z,100659.22
2022-09-23T09:32:02.216Z,100657.48
2022-09-23T09:34:38.098Z,100658.69
2022-09-23T09:37:32.958Z,100664.38
2022-09-23T09:40:04.526Z,100669.19
2022-09-23T09:42:42.777Z,100656.50
2022-09-23T09:45:24.272Z,100657.51
2022-09-23T09:48:16.585Z,100659.77
2022-09-23T09:50:56.322Z,100659.77
2022-09-23T09:53:32.364Z,100655.59
2022-09-23T09:56:10.653Z,100653.28
2022-09-23T09:58:59.762Z,100651.27
2022-09-23T10:01:32.864Z,100647.66
2022-09-23T10:04:08.681Z,100649.09
2022-09-23T10:06:39.557Z,100652.31
2022-09-23T10:09:15.121Z,100643.46
2022-09-23T10:11:47.970Z,100636.05
2022-09-23T10:14:19.416Z,100639.23
2022-09-23T10:16:52.388Z,100642.14
2022-09-23T10:19:30.265Z,100637.91
2022-09-23T10:22:05.239Z,100627.94
2022-09-23T10:24:38.547Z,100628.95
2022-09-23T10:27:12.073Z,100627.86
2022-09-23T10:29:52.424Z,100623.19
2022-09-23T10:32:37.008Z,100627.39
2022-09-23T10:35:13.347Z,100614.94
2022-09-23T10:37:51.213Z,100611.50
2022-09-23T10:40:41.988Z,100590.31
2022-09-23T10:44:01.837Z,100590.31
2022-09-23T10:46:48.522Z,100597.68
2022-09-23T10:49:52.787Z,100599.29
2022-09-23T10:52:28.213Z,100596.84
2022-09-23T10:55:19.190Z,100593.49
2022-09-23T10:58:17.488Z,100584.60
2022-09-23T11:01:05.438Z,100585.33
2022-09-23T11:03:41.091Z,100578.86
2022-09-23T11:06:47.763Z,100581.09
2022-09-23T11:09:41.225Z,100581.80
2022-09-23T11:12:45.991Z,100579.80
2022-09-23T11:15:31.189Z,100580.45
2022-09-23T11:18:12.788Z,100574.89
2022-09-23T11:20:51.596Z,100564.05
2022-09-23T11:23:39.271Z,100562.07
2022-09-23T11:26:37.800Z,100556.16
2022-09-23T11:29:22.965Z,100557.41
2022-09-23T11:32:07.855Z,100547.05
2022-09-23T11:34:49.857Z,100551.05
2022-09-23T11:37:23.695Z,100545.88
2022-09-23T11:39:59.731Z,100543.75
2022-09-23T11:42:32.407Z,100542.05
2022-09-23T11:45:05.246Z,100542.38
2022-09-23T11:47:48.919Z,100534.48
2022-09-23T11:50:39.465Z,100535.86
2022-09-23T11:53:39.491Z,100537.55
2022-09-23T11:56:12.195Z,100535.23
2022-09-23T11:58:57.424Z,100527.05
2022-09-23T12:01:35.233Z,100526.95
2022-09-23T12:04:13.190Z,100527.33
2022-09-23T12:06:46.610Z,100523.59
2022-09-23T12:09:40.982Z,100527.87
2022-09-23T12:12:02.662Z,100517.19
2022-09-23T12:14:38.531Z,100518.15
2022-09-23T12:17:17.271Z,100513.55
2022-09-23T12:20:06.772Z,100508.24
2022-09-23T12:22:45.879Z,100508.77
2022-09-23T12:25:27.461Z,100512.10
2022-09-23T12:28:04.175Z,100508.66
2022-09-23T12:30:36.810Z,100501.00
2022-09-23T12:33:31.204Z,100498.92
2022-09-23T12:36:09.407Z,100492.91
2022-09-23T12:38:45.160Z,100497.13
2022-09-23T12:41:37.663Z,100493.63
2022-09-23T12:44:16.690Z,100491.70
2022-09-23T12:46:48.377Z,100477.55
2022-09-23T12:49:25.956Z,100474.66
2022-09-23T12:52:16.074Z,100483.68
2022-09-23T12:58:44.831Z,100455.22
2022-09-23T13:01:23.404Z,100479.89
2022-09-23T13:04:17.201Z,100473.89
2022-09-23T13:07:02.067Z,100446.19
2022-09-23T13:09:35.005Z,100446.19
2022-09-23T13:12:08.415Z,100463.64
2022-09-23T13:14:39.459Z,100463.64
2022-09-23T13:17:14.171Z,100452.91
2022-09-23T13:19:46.510Z,100441.90
2022-09-23T13:22:19.370Z,100445.12
2022-09-23T13:24:55.213Z,100433.61
2022-09-23T13:27:37.718Z,100433.99
2022-09-23T13:30:16.510Z,100429.06
2022-09-23T13:32:55.301Z,100427.36
2022-09-23T13:35:28.758Z,100423.30
2022-09-23T13:37:58.699Z,100425.75
2022-09-23T13:40:30.106Z,100418.78
2022-09-23T13:43:09.664Z,100412.19
2022-09-23T13:45:43.505Z,100413.34
2022-09-23T13:48:18.187Z,100408.09
2022-09-23T13:50:56.165Z,100410.36
2022-09-23T13:53:29.228Z,100375.68
2022-09-23T13:56:07.074Z,100375.68
2022-09-23T13:58:37.250Z,100393.48
2022-09-23T14:01:12.020Z,100369.55
2022-09-23T14:03:42.018Z,100369.55
2022-09-23T14:06:17.178Z,100383.91
2022-09-23T14:08:49.912Z,100369.80
2022-09-23T14:11:22.770Z,100369.80
2022-09-23T14:13:54.199Z,100388.59
2022-09-23T14:16:28.239Z,100393.63
2022-09-23T14:19:01.782Z,100392.86
2022-09-23T14:21:35.292Z,100388.23
2022-09-23T14:24:21.778Z,100382.95
2022-09-23T14:27:08.689Z,100385.44
2022-09-23T14:29:44.397Z,100384.04
2022-09-23T14:32:18.993Z,100380.39
2022-09-23T14:34:52.208Z,100377.14
2022-09-23T14:37:52.276Z,100370.06
2022-09-23T14:40:36.101Z,100366.52
2022-09-23T14:43:18.619Z,100362.81
2022-09-23T14:45:50.833Z,100357.44
2022-09-23T14:48:34.421Z,100355.05
2022-09-23T14:51:07.695Z,100345.75
2022-09-23T14:53:40.621Z,100350.16
2022-09-23T14:56:16.598Z,100342.66
2022-09-23T14:58:52.948Z,100343.28
2022-09-23T15:01:39.171Z,100336.53
2022-09-23T15:04:24.622Z,100340.64
2022-09-23T15:07:03.448Z,100330.50
2022-09-23T15:09:38.756Z,100332.66
2022-09-23T15:12:20.795Z,100329.65
2022-09-23T15:14:56.708Z,100332.00
2022-09-23T15:17:35.239Z,100328.39
2022-09-23T15:20:21.289Z,100326.86
2022-09-23T15:22:54.861Z,100326.86
2022-09-23T15:25:37.241Z,100328.30
2022-09-23T15:28:13.384Z,100330.36
2022-09-23T15:30:43.382Z,100325.44
2022-09-23T15:33:27.837Z,100329.80
2022-09-23T15:35:58.825Z,100329.33
2022-09-23T15:38:28.652Z,100324.12
2022-09-23T15:40:58.726Z,100319.30
2022-09-23T15:43:28.525Z,100321.89
2022-09-23T15:46:01.079Z,100319.30
2022-09-23T15:48:40.345Z,100318.14
2022-09-23T15:51:13.104Z,100316.37
2022-09-23T15:53:42.733Z,100321.25
2022-09-23T15:56:13.395Z,100321.52
2022-09-23T15:58:42.894Z,100322.53
2022-09-23T16:01:30.772Z,100324.16
2022-09-23T16:04:04.406Z,100326.73
2022-09-23T16:06:38.281Z,100323.45
2022-09-23T16:09:08.244Z,100322.58
2022-09-23T16:11:39.029Z,100317.34
2022-09-23T16:14:17.058Z,100319.05
2022-09-23T16:16:48.103Z,100319.05
2022-09-23T16:19:18.071Z,100322.17
2022-09-23T16:21:48.103Z,100318.42
2022-09-23T16:24:24.747Z,100311.83
2022-09-23T16:26:51.899Z,100324.15
2022-09-23T16:29:21.416Z,100320.58
2022-09-23T16:31:56.361Z,100318.78
2022-09-23T16:34:26.275Z,100322.45
2022-09-23T16:36:56.125Z,100321.13
2022-09-23T16:39:25.910Z,100320.95
2022-09-23T16:41:55.849Z,100323.98
2022-09-23T16:44:25.651Z,100318.61
2022-09-23T16:46:57.110Z,100320.62
2022-09-23T16:49:29.358Z,100315.62
2022-09-23T16:52:00.328Z,100321.21
2022-09-23T16:54:30.486Z,100321.21
2022-09-23T16:57:00.404Z,100319.66
2022-09-23T16:59:31.837Z,100315.33
2022-09-23T17:02:18.463Z,100315.36
2022-09-23T17:04:47.936Z,100314.75
2022-09-23T17:07:17.452Z,100317.28
2022-09-23T17:09:47.369Z,100314.98
2022-09-23T17:12:26.861Z,100318.72
2022-09-23T17:14:56.669Z,100309.67
2022-09-23T17:17:28.197Z,100315.83
2022-09-23T17:20:03.916Z,100316.30
2022-09-23T17:22:36.522Z,100318.59
2022-09-23T17:25:07.041Z,100318.21
2022-09-23T17:27:37.835Z,100312.41
2022-09-23T17:30:07.973Z,100311.95
2022-09-23T17:32:38.060Z,100313.25
2022-09-23T17:35:09.827Z,100312.39
2022-09-23T17:37:40.039Z,100311.77
2022-09-23T17:40:16.128Z,100308.55
2022-09-23T17:42:50.317Z,100311.87
2022-09-23T17:45:22.348Z,100312.81
2022-09-23T17:47:54.847Z,100311.09
2022-09-23T17:50:27.404Z,100312.11
2022-09-23T17:53:00.153Z,100312.11
2022-09-23T17:55:30.015Z,100315.16
2022-09-23T17:58:03.165Z,100315.02
2022-09-23T18:00:33.042Z,100303.21
2022-09-23T18:03:04.742Z,100314.59
2022-09-23T18:05:35.306Z,100318.40
2022-09-23T18:08:06.132Z,100315.40
2022-09-23T18:10:38.385Z,100315.28
2022-09-23T18:13:08.161Z,100320.57
2022-09-23T18:15:42.301Z,100317.00
2022-09-23T18:18:13.490Z,100325.94
2022-09-23T18:20:43.447Z,100324.08
2022-09-23T18:23:13.582Z,100327.46
2022-09-23T18:25:45.902Z,100325.56
2022-09-23T18:28:16.714Z,100324.92
2022-09-23T18:30:59.034Z,100323.33
2022-09-23T18:33:29.337Z,100327.40
2022-09-23T18:36:03.134Z,100319.98
2022-09-23T18:38:40.246Z,100315.28
2022-09-23T18:41:24.184Z,100315.28
2022-09-23T18:43:55.011Z,100315.86
2022-09-23T18:46:29.452Z,100315.38
2022-09-23T18:49:20.037Z,100314.91
2022-09-23T18:51:56.073Z,100316.70
2022-09-23T18:54:30.976Z,100313.23
2022-09-23T18:57:01.438Z,100313.52
2022-09-23T18:59:32.825Z,100317.05
2022-09-23T19:02:03.087Z,100312.63
2022-09-23T19:04:33.418Z,100310.92
2022-09-23T19:07:04.336Z,100313.38
2022-09-23T19:09:34.282Z,100308.57
2022-09-23T19:12:04.556Z,100305.75
2022-09-23T19:14:36.154Z,100298.93
2022-09-23T19:17:06.510Z,100298.93
2022-09-23T19:19:37.091Z,100303.08
2022-09-23T19:22:07.200Z,100303.27
2022-09-23T19:24:36.875Z,100302.72
2022-09-23T19:27:07.010Z,100301.69
2022-09-23T19:29:38.522Z,100301.91
2022-09-23T19:32:08.528Z,100303.23
2022-09-23T19:34:43.246Z,100299.84
2022-09-23T19:37:13.093Z,100298.44
2022-09-23T19:39:44.429Z,100302.63
2022-09-23T19:42:14.229Z,100300.27
2022-09-23T19:44:44.526Z,100299.70
2022-09-23T19:47:16.048Z,100297.81
2022-09-23T19:49:49.690Z,100300.39
2022-09-23T19:52:19.765Z,100302.42
2022-09-23T19:54:51.807Z,100304.62
2022-09-23T19:57:23.331Z,100304.89
2022-09-23T19:59:54.700Z,100303.30
2022-09-23T20:02:25.667Z,100298.48
2022-09-23T20:04:56.307Z,100300.11
2022-09-23T20:07:25.138Z,100303.77
2022-09-23T20:09:55.936Z,100306.39
2022-09-23T20:12:25.734Z,100305.34
2022-09-23T20:14:57.568Z,100300.46
2022-09-23T20:17:28.727Z,100301.20
2022-09-23T20:19:59.002Z,100300.09
2022-09-23T20:22:33.576Z,100303.38
2022-09-23T20:25:03.779Z,100297.06
2022-09-23T20:27:36.191Z,100295.11
2022-09-23T20:30:07.682Z,100287.20
2022-09-23T20:32:44.620Z,100287.97
2022-09-23T20:35:13.569Z,100270.63
2022-09-23T20:37:43.535Z,100270.63
2022-09-23T20:40:13.407Z,100284.73
2022-09-23T20:42:43.282Z,100288.11
2022-09-23T20:45:12.863Z,100291.67
2022-09-23T20:47:43.680Z,100285.77
2022-09-23T20:50:13.661Z,100289.90
2022-09-23T20:52:43.474Z,100289.61
2022-09-23T20:55:13.175Z,100277.86
2022-09-23T20:57:44.346Z,100276.72
2022-09-23T21:00:14.871Z,100281.95
2022-09-23T21:02:46.461Z,100284.03
2022-09-23T21:05:24.650Z,100285.44
2022-09-23T21:07:54.435Z,100287.66
2022-09-23T21:10:24.927Z,100285.20
2022-09-23T21:12:54.418Z,100278.04
2022-09-23T21:15:24.165Z,100281.86
2022-09-23T21:17:54.244Z,100288.72
2022-09-23T21:20:25.359Z,100285.80
2022-09-23T21:22:56.419Z,100285.80
2022-09-23T21:25:31.319Z,100285.50
2022-09-23T21:28:02.081Z,100284.19
2022-09-23T21:30:36.653Z,100286.98
2022-09-23T21:33:07.216Z,100291.31
2022-09-23T21:35:38.262Z,100281.72
2022-09-23T21:38:08.049Z,100275.16
2022-09-23T21:40:55.690Z,100264.13
2022-09-23T21:43:32.378Z,100280.41
2022-09-23T21:46:04.783Z,100277.02
2022-09-23T21:48:37.535Z,100282.66
2022-09-23T21:51:15.922Z,100275.33
2022-09-23T21:53:48.008Z,100275.03
2022-09-23T21:56:21.320Z,100271.55
2022-09-23T21:58:53.743Z,100274.94
2022-09-23T22:01:33.184Z,100272.87
2022-09-23T22:04:07.577Z,100273.03
2022-09-23T22:06:40.535Z,100269.94
2022-09-23T22:09:13.219Z,100270.87
2022-09-23T22:12:01.858Z,100270.87
2022-09-23T22:14:32.118Z,100266.17
2022-09-23T22:17:04.791Z,100264.09
2022-09-23T22:19:42.995Z,100269.05
2022-09-23T22:22:18.780Z,100269.22
2022-09-23T22:24:49.285Z,100277.05
2022-09-23T22:27:20.634Z,100272.52
2022-09-23T22:30:09.418Z,100268.44
2022-09-23T22:32:42.089Z,100264.58
2022-09-23T22:35:18.282Z,100267.21
2022-09-23T22:37:48.378Z,100264.95
2022-09-23T22:40:18.397Z,100266.81
2022-09-23T22:42:48.781Z,100264.81
2022-09-23T22:45:18.420Z,100264.67
2022-09-23T22:47:52.145Z,100263.06
2022-09-23T22:50:21.640Z,100265.77
2022-09-23T22:52:53.430Z,100261.69
2022-09-23T22:55:22.927Z,100256.91
2022-09-23T22:57:53.022Z,100255.02
2022-09-23T23:00:22.809Z,100251.70
2022-09-23T23:02:54.811Z,100254.41
2022-09-23T23:05:24.382Z,100255.67
2022-09-23T23:07:54.264Z,100253.20
2022-09-23T23:10:27.951Z,100250.73
2022-09-23T23:12:57.832Z,100247.92
2022-09-23T23:15:28.678Z,100252.33
2022-09-23T23:17:59.091Z,100250.41
2022-09-23T23:20:28.588Z,100250.09
2022-09-23T23:22:59.898Z,100245.90
2022-09-23T23:25:30.014Z,100250.08
2022-09-23T23:28:00.299Z,100245.98
2022-09-23T23:30:30.127Z,100246.91
2022-09-23T23:32:59.940Z,100244.06
2022-09-23T23:35:29.900Z,100241.13
2022-09-23T23:38:00.981Z,100239.86
2022-09-23T23:40:30.900Z,100239.86
2022-09-23T23:43:02.176Z,100233.30
2022-09-23T23:45:30.924Z,100230.91
2022-09-23T23:48:00.378Z,100233.70
2022-09-23T23:50:30.446Z,100230.16
2022-09-23T23:53:00.245Z,100225.23
2022-09-23T23:55:30.028Z,100229.45
2022-09-23T23:58:01.721Z,100221.06
